sensor_id;sensor_type;location;lat;lon;timestamp;P1;durP1;ratioP1;P2;durP2;ratioP2
43429;SDS011;29028;43.234;27.896;2022-08-21T04:01:34;14.23;;;12.73;;
43429;SDS011;29028;43.234;27.896;2022-08-21T04:01:56;14.60;;;13.10;;
43429;SDS011;29028;43.234;27.896;2022-08-21T04:02:20;14.77;;;13.23;;
43429;SDS011;29028;43.234;27.896;2022-08-21T04:02:41;14.90;;;12.85;;
43429;SDS011;29028;43.234;27.896;2022-08-21T04:03:03;15.02;;;13.05;;
43429;SDS011;29028;43.234;27.896;2022-08-21T04:03:26;14.98;;;13.45;;
43429;SDS011;29028;43.234;27.896;2022-08-21T04:03:47;14.75;;;13.18;;
43429;SDS011;29028;43.234;27.896;2022-08-21T04:04:08;15.10;;;13.50;;
43429;SDS011;29028;43.234;27.896;2022-08-21T04:04:29;15.37;;;13.57;;
43429;SDS011;29028;43.234;27.896;2022-08-21T04:04:50;17.15;;;13.98;;
43429;SDS011;29028;43.234;27.896;2022-08-21T04:05:12;15.23;;;13.47;;
43429;SDS011;29028;43.234;27.896;2022-08-21T04:05:34;16.30;;;14.13;;
43429;SDS011;29028;43.234;27.896;2022-08-21T04:05:56;16.40;;;14.52;;
43429;SDS011;29028;43.234;27.896;2022-08-21T04:06:17;17.50;;;14.55;;
43429;SDS011;29028;43.234;27.896;2022-08-21T04:06:38;16.23;;;13.82;;
43429;SDS011;29028;43.234;27.896;2022-08-21T04:07:00;16.02;;;14.32;;
43429;SDS011;29028;43.234;27.896;2022-08-21T04:07:21;15.93;;;14.10;;
43429;SDS011;29028;43.234;27.896;2022-08-21T04:07:42;17.67;;;14.35;;
43429;SDS011;29028;43.234;27.896;2022-08-21T04:08:04;18.23;;;14.55;;
43429;SDS011;29028;43.234;27.896;2022-08-21T04:08:26;15.63;;;13.75;;
43429;SDS011;29028;43.234;27.896;2022-08-21T04:08:47;16.13;;;14.05;;
43429;SDS011;29028;43.234;27.896;2022-08-21T04:09:08;16.60;;;14.52;;
43429;SDS011;29028;43.234;27.896;2022-08-21T04:09:30;16.40;;;14.70;;
43429;SDS011;29028;43.234;27.896;2022-08-21T04:09:51;16.88;;;15.00;;
43429;SDS011;29028;43.234;27.896;2022-08-21T04:10:12;17.30;;;14.40;;
43429;SDS011;29028;43.234;27.896;2022-08-21T04:10:33;16.65;;;14.38;;
43429;SDS011;29028;43.234;27.896;2022-08-21T04:10:56;16.65;;;14.55;;
43429;SDS011;29028;43.234;27.896;2022-08-21T04:11:19;16.73;;;14.52;;
43429;SDS011;29028;43.234;27.896;2022-08-21T04:11:40;16.27;;;14.57;;
43429;SDS011;29028;43.234;27.896;2022-08-21T04:12:01;16.13;;;14.43;;
43429;SDS011;29028;43.234;27.896;2022-08-21T04:12:23;17.45;;;14.52;;
43429;SDS011;29028;43.234;27.896;2022-08-21T04:12:44;16.90;;;14.27;;
43429;SDS011;29028;43.234;27.896;2022-08-21T04:13:06;16.25;;;14.35;;
43429;SDS011;29028;43.234;27.896;2022-08-21T04:13:28;17.77;;;14.35;;
43429;SDS011;29028;43.234;27.896;2022-08-21T04:13:48;17.15;;;14.45;;
43429;SDS011;29028;43.234;27.896;2022-08-21T04:14:10;17.10;;;15.35;;
43429;SDS011;29028;43.234;27.896;2022-08-21T04:14:31;17.60;;;15.80;;
43429;SDS011;29028;43.234;27.896;2022-08-21T04:14:52;17.15;;;15.35;;
43429;SDS011;29028;43.234;27.896;2022-08-21T04:15:13;17.40;;;15.60;;
43429;SDS011;29028;43.234;27.896;2022-08-21T04:15:34;16.90;;;15.10;;
43429;SDS011;29028;43.234;27.896;2022-08-21T04:15:56;16.47;;;14.70;;
43429;SDS011;29028;43.234;27.896;2022-08-21T04:16:18;15.85;;;14.10;;
43429;SDS011;29028;43.234;27.896;2022-08-21T04:16:41;16.15;;;14.07;;
43429;SDS011;29028;43.234;27.896;2022-08-21T04:17:02;15.85;;;14.15;;
43429;SDS011;29028;43.234;27.896;2022-08-21T04:17:23;15.60;;;14.00;;
43429;SDS011;29028;43.234;27.896;2022-08-21T04:17:45;15.88;;;14.18;;
43429;SDS011;29028;43.234;27.896;2022-08-21T04:18:06;16.63;;;14.45;;
43429;SDS011;29028;43.234;27.896;2022-08-21T04:18:28;16.70;;;14.88;;
43429;SDS011;29028;43.234;27.896;2022-08-21T04:18:49;16.90;;;14.93;;
43429;SDS011;29028;43.234;27.896;2022-08-21T04:19:11;16.70;;;14.90;;
43429;SDS011;29028;43.234;27.896;2022-08-21T04:19:33;17.30;;;15.45;;
43429;SDS011;29028;43.234;27.896;2022-08-21T04:19:54;17.80;;;15.00;;
43429;SDS011;29028;43.234;27.896;2022-08-21T04:20:15;18.80;;;14.68;;
43429;SDS011;29028;43.234;27.896;2022-08-21T04:20:37;16.98;;;14.63;;
43429;SDS011;29028;43.234;27.896;2022-08-21T04:21:00;17.10;;;15.20;;
43429;SDS011;29028;43.234;27.896;2022-08-21T04:21:22;17.42;;;15.52;;
43429;SDS011;29028;43.234;27.896;2022-08-21T04:21:43;17.23;;;15.18;;
43429;SDS011;29028;43.234;27.896;2022-08-21T04:22:05;17.55;;;15.20;;
43429;SDS011;29028;43.234;27.896;2022-08-21T04:22:26;16.90;;;15.10;;
43429;SDS011;29028;43.234;27.896;2022-08-21T04:22:47;17.88;;;15.05;;
43429;SDS011;29028;43.234;27.896;2022-08-21T04:23:08;18.20;;;15.55;;
43429;SDS011;29028;43.234;27.896;2022-08-21T04:23:29;18.15;;;15.27;;
43429;SDS011;29028;43.234;27.896;2022-08-21T04:23:53;17.67;;;15.52;;
43429;SDS011;29028;43.234;27.896;2022-08-21T04:24:14;17.70;;;15.80;;
43429;SDS011;29028;43.234;27.896;2022-08-21T04:24:36;18.05;;;15.25;;
43429;SDS011;29028;43.234;27.896;2022-08-21T04:24:57;16.60;;;14.90;;
43429;SDS011;29028;43.234;27.896;2022-08-21T04:25:18;17.20;;;15.40;;
43429;SDS011;29028;43.234;27.896;2022-08-21T04:25:43;16.80;;;15.00;;
43429;SDS011;29028;43.234;27.896;2022-08-21T04:26:03;16.15;;;14.45;;
43429;SDS011;29028;43.234;27.896;2022-08-21T04:26:24;17.23;;;15.02;;
43429;SDS011;29028;43.234;27.896;2022-08-21T04:26:45;18.55;;;15.38;;
43429;SDS011;29028;43.234;27.896;2022-08-21T04:27:07;17.73;;;15.07;;
43429;SDS011;29028;43.234;27.896;2022-08-21T04:27:28;16.83;;;15.02;;
43429;SDS011;29028;43.234;27.896;2022-08-21T04:27:49;17.05;;;15.15;;
43429;SDS011;29028;43.234;27.896;2022-08-21T04:28:11;17.95;;;15.90;;
43429;SDS011;29028;43.234;27.896;2022-08-21T04:28:33;18.27;;;16.10;;
43429;SDS011;29028;43.234;27.896;2022-08-21T04:28:54;19.67;;;17.05;;
43429;SDS011;29028;43.234;27.896;2022-08-21T04:29:17;21.50;;;17.38;;
43429;SDS011;29028;43.234;27.896;2022-08-21T04:29:39;20.38;;;17.15;;
43429;SDS011;29028;43.234;27.896;2022-08-21T04:30:01;19.90;;;17.42;;
43429;SDS011;29028;43.234;27.896;2022-08-21T04:30:23;22.20;;;18.20;;
43429;SDS011;29028;43.234;27.896;2022-08-21T04:30:44;23.30;;;18.87;;
43429;SDS011;29028;43.234;27.896;2022-08-21T04:31:05;21.70;;;18.75;;
43429;SDS011;29028;43.234;27.896;2022-08-21T04:31:27;23.25;;;19.77;;
43429;SDS011;29028;43.234;27.896;2022-08-21T04:31:50;23.15;;;19.77;;
43429;SDS011;29028;43.234;27.896;2022-08-21T04:32:12;23.42;;;19.25;;
43429;SDS011;29028;43.234;27.896;2022-08-21T04:32:33;22.30;;;18.73;;
43429;SDS011;29028;43.234;27.896;2022-08-21T04:32:55;22.00;;;18.92;;
43429;SDS011;29028;43.234;27.896;2022-08-21T04:33:19;23.33;;;19.92;;
43429;SDS011;29028;43.234;27.896;2022-08-21T04:33:41;23.58;;;20.05;;
43429;SDS011;29028;43.234;27.896;2022-08-21T04:34:02;23.15;;;19.55;;
43429;SDS011;29028;43.234;27.896;2022-08-21T04:34:23;24.38;;;19.80;;
43429;SDS011;29028;43.234;27.896;2022-08-21T04:34:45;24.25;;;19.88;;
43429;SDS011;29028;43.234;27.896;2022-08-21T04:35:07;23.75;;;20.13;;
43429;SDS011;29028;43.234;27.896;2022-08-21T04:35:29;22.83;;;20.00;;
43429;SDS011;29028;43.234;27.896;2022-08-21T04:35:51;23.73;;;19.75;;
43429;SDS011;29028;43.234;27.896;2022-08-21T04:36:12;24.33;;;19.48;;
43429;SDS011;29028;43.234;27.896;2022-08-21T04:36:33;23.80;;;19.42;;
43429;SDS011;29028;43.234;27.896;2022-08-21T04:36:54;21.55;;;18.95;;
43429;SDS011;29028;43.234;27.896;2022-08-21T04:37:15;21.10;;;18.73;;
43429;SDS011;29028;43.234;27.896;2022-08-21T04:37:36;22.52;;;19.58;;
43429;SDS011;29028;43.234;27.896;2022-08-21T04:37:58;22.45;;;18.80;;
43429;SDS011;29028;43.234;27.896;2022-08-21T04:38:19;22.10;;;18.53;;
43429;SDS011;29028;43.234;27.896;2022-08-21T04:38:41;22.33;;;18.42;;
43429;SDS011;29028;43.234;27.896;2022-08-21T04:39:02;23.10;;;18.92;;
43429;SDS011;29028;43.234;27.896;2022-08-21T04:39:23;22.65;;;19.17;;
43429;SDS011;29028;43.234;27.896;2022-08-21T04:39:45;23.00;;;19.63;;
43429;SDS011;29028;43.234;27.896;2022-08-21T04:40:06;24.03;;;20.17;;
43429;SDS011;29028;43.234;27.896;2022-08-21T04:40:29;24.48;;;20.42;;
43429;SDS011;29028;43.234;27.896;2022-08-21T04:40:52;23.52;;;19.88;;
43429;SDS011;29028;43.234;27.896;2022-08-21T04:41:20;25.85;;;19.58;;
43429;SDS011;29028;43.234;27.896;2022-08-21T04:41:40;23.75;;;19.52;;
43429;SDS011;29028;43.234;27.896;2022-08-21T04:42:01;26.27;;;20.25;;
43429;SDS011;29028;43.234;27.896;2022-08-21T04:42:22;24.50;;;19.90;;
43429;SDS011;29028;43.234;27.896;2022-08-21T04:42:44;22.80;;;20.10;;
43429;SDS011;29028;43.234;27.896;2022-08-21T04:43:09;24.05;;;20.15;;
43429;SDS011;29028;43.234;27.896;2022-08-21T04:43:30;23.10;;;19.33;;
43429;SDS011;29028;43.234;27.896;2022-08-21T04:43:52;22.90;;;19.40;;
43429;SDS011;29028;43.234;27.896;2022-08-21T04:44:14;21.67;;;19.00;;
43429;SDS011;29028;43.234;27.896;2022-08-21T04:44:36;23.10;;;19.75;;
43429;SDS011;29028;43.234;27.896;2022-08-21T04:44:57;24.33;;;19.95;;
43429;SDS011;29028;43.234;27.896;2022-08-21T04:45:18;23.08;;;18.98;;
43429;SDS011;29028;43.234;27.896;2022-08-21T04:45:42;21.80;;;19.10;;
43429;SDS011;29028;43.234;27.896;2022-08-21T04:46:07;21.27;;;18.25;;
43429;SDS011;29028;43.234;27.896;2022-08-21T04:46:28;21.42;;;18.17;;
43429;SDS011;29028;43.234;27.896;2022-08-21T04:46:50;21.38;;;18.10;;
43429;SDS011;29028;43.234;27.896;2022-08-21T04:47:11;21.60;;;17.83;;
43429;SDS011;29028;43.234;27.896;2022-08-21T04:47:33;20.48;;;17.80;;
43429;SDS011;29028;43.234;27.896;2022-08-21T04:47:55;20.25;;;17.52;;
43429;SDS011;29028;43.234;27.896;2022-08-21T04:48:19;19.23;;;17.15;;
43429;SDS011;29028;43.234;27.896;2022-08-21T04:48:44;19.35;;;16.92;;
43429;SDS011;29028;43.234;27.896;2022-08-21T04:49:05;18.88;;;16.67;;
43429;SDS011;29028;43.234;27.896;2022-08-21T04:49:26;18.65;;;16.58;;
43429;SDS011;29028;43.234;27.896;2022-08-21T04:49:47;19.57;;;16.57;;
43429;SDS011;29028;43.234;27.896;2022-08-21T04:50:09;19.15;;;16.40;;
43429;SDS011;29028;43.234;27.896;2022-08-21T04:50:31;17.80;;;15.75;;
43429;SDS011;29028;43.234;27.896;2022-08-21T04:51:05;19.73;;;16.30;;
43429;SDS011;29028;43.234;27.896;2022-08-21T04:51:31;18.60;;;15.63;;
43429;SDS011;29028;43.234;27.896;2022-08-21T04:51:55;17.80;;;15.02;;
43429;SDS011;29028;43.234;27.896;2022-08-21T04:52:17;16.27;;;14.25;;
43429;SDS011;29028;43.234;27.896;2022-08-21T04:52:41;16.45;;;14.23;;
43429;SDS011;29028;43.234;27.896;2022-08-21T04:53:03;15.43;;;13.73;;
43429;SDS011;29028;43.234;27.896;2022-08-21T04:53:28;16.08;;;13.98;;
43429;SDS011;29028;43.234;27.896;2022-08-21T04:53:54;16.38;;;13.90;;
43429;SDS011;29028;43.234;27.896;2022-08-21T04:54:18;16.00;;;14.15;;
43429;SDS011;29028;43.234;27.896;2022-08-21T04:54:41;15.38;;;13.77;;
43429;SDS011;29028;43.234;27.896;2022-08-21T04:55:05;16.60;;;13.70;;
43429;SDS011;29028;43.234;27.896;2022-08-21T04:55:28;18.20;;;14.02;;
43429;SDS011;29028;43.234;27.896;2022-08-21T04:55:49;16.58;;;14.25;;
43429;SDS011;29028;43.234;27.896;2022-08-21T04:56:14;15.60;;;13.88;;
43429;SDS011;29028;43.234;27.896;2022-08-21T04:56:40;16.02;;;13.35;;
43429;SDS011;29028;43.234;27.896;2022-08-21T04:57:04;16.52;;;13.50;;
43429;SDS011;29028;43.234;27.896;2022-08-21T04:57:30;16.42;;;13.25;;
43429;SDS011;29028;43.234;27.896;2022-08-21T04:57:51;18.35;;;13.27;;
43429;SDS011;29028;43.234;27.896;2022-08-21T04:58:15;16.40;;;12.82;;
43429;SDS011;29028;43.234;27.896;2022-08-21T04:58:39;13.75;;;12.35;;
43429;SDS011;29028;43.234;27.896;2022-08-21T04:59:04;14.35;;;11.95;;
43429;SDS011;29028;43.234;27.896;2022-08-21T04:59:33;13.10;;;11.73;;
43429;SDS011;29028;43.234;27.896;2022-08-21T04:59:57;13.98;;;12.10;;
43429;SDS011;29028;43.234;27.896;2022-08-21T05:00:19;14.18;;;12.65;;
43429;SDS011;29028;43.234;27.896;2022-08-21T05:00:41;13.88;;;12.35;;
43429;SDS011;29028;43.234;27.896;2022-08-21T05:01:04;14.90;;;12.27;;
43429;SDS011;29028;43.234;27.896;2022-08-21T05:01:29;13.60;;;11.90;;
43429;SDS011;29028;43.234;27.896;2022-08-21T05:01:55;13.70;;;11.95;;
43429;SDS011;29028;43.234;27.896;2022-08-21T05:02:17;13.90;;;12.50;;
43429;SDS011;29028;43.234;27.896;2022-08-21T05:02:39;13.18;;;11.98;;
43429;SDS011;29028;43.234;27.896;2022-08-21T05:03:00;12.63;;;11.43;;
43429;SDS011;29028;43.234;27.896;2022-08-21T05:03:23;12.90;;;11.60;;
43429;SDS011;29028;43.234;27.896;2022-08-21T05:03:45;13.25;;;11.80;;
43429;SDS011;29028;43.234;27.896;2022-08-21T05:04:09;12.30;;;11.07;;
43429;SDS011;29028;43.234;27.896;2022-08-21T05:04:33;12.10;;;10.80;;
43429;SDS011;29028;43.234;27.896;2022-08-21T05:04:57;12.65;;;11.43;;
43429;SDS011;29028;43.234;27.896;2022-08-21T05:05:20;12.07;;;10.87;;
43429;SDS011;29028;43.234;27.896;2022-08-21T05:05:41;12.40;;;10.85;;
43429;SDS011;29028;43.234;27.896;2022-08-21T05:06:03;13.07;;;10.57;;
43429;SDS011;29028;43.234;27.896;2022-08-21T05:06:27;13.60;;;11.20;;
43429;SDS011;29028;43.234;27.896;2022-08-21T05:06:52;12.02;;;10.70;;
43429;SDS011;29028;43.234;27.896;2022-08-21T05:07:18;13.80;;;10.88;;
43429;SDS011;29028;43.234;27.896;2022-08-21T05:07:42;12.07;;;10.88;;
43429;SDS011;29028;43.234;27.896;2022-08-21T05:08:06;11.52;;;10.32;;
43429;SDS011;29028;43.234;27.896;2022-08-21T05:08:29;11.57;;;10.38;;
43429;SDS011;29028;43.234;27.896;2022-08-21T05:08:50;11.20;;;10.07;;
43429;SDS011;29028;43.234;27.896;2022-08-21T05:09:16;11.23;;;10.13;;
43429;SDS011;29028;43.234;27.896;2022-08-21T05:09:38;11.55;;;10.35;;
43429;SDS011;29028;43.234;27.896;2022-08-21T05:10:00;11.32;;;9.75;;
43429;SDS011;29028;43.234;27.896;2022-08-21T05:10:21;10.75;;;9.65;;
43429;SDS011;29028;43.234;27.896;2022-08-21T05:10:42;11.05;;;9.98;;
43429;SDS011;29028;43.234;27.896;2022-08-21T05:11:04;11.02;;;9.93;;
43429;SDS011;29028;43.234;27.896;2022-08-21T05:11:26;11.13;;;9.95;;
43429;SDS011;29028;43.234;27.896;2022-08-21T05:11:48;11.45;;;10.13;;
43429;SDS011;29028;43.234;27.896;2022-08-21T05:12:09;11.73;;;10.23;;
43429;SDS011;29028;43.234;27.896;2022-08-21T05:12:30;11.05;;;9.88;;
43429;SDS011;29028;43.234;27.896;2022-08-21T05:12:53;11.63;;;9.93;;
43429;SDS011;29028;43.234;27.896;2022-08-21T05:13:15;12.00;;;10.27;;
43429;SDS011;29028;43.234;27.896;2022-08-21T05:13:36;12.40;;;10.43;;
43429;SDS011;29028;43.234;27.896;2022-08-21T05:13:57;11.40;;;10.20;;
43429;SDS011;29028;43.234;27.896;2022-08-21T05:14:18;11.20;;;10.10;;
43429;SDS011;29028;43.234;27.896;2022-08-21T05:14:40;11.50;;;10.40;;
43429;SDS011;29028;43.234;27.896;2022-08-21T05:15:02;11.07;;;9.98;;
43429;SDS011;29028;43.234;27.896;2022-08-21T05:15:24;11.05;;;9.93;;
43429;SDS011;29028;43.234;27.896;2022-08-21T05:15:45;11.73;;;9.98;;
43429;SDS011;29028;43.234;27.896;2022-08-21T05:16:07;11.50;;;10.30;;
43429;SDS011;29028;43.234;27.896;2022-08-21T05:16:28;11.18;;;10.02;;
43429;SDS011;29028;43.234;27.896;2022-08-21T05:16:49;10.80;;;9.70;;
43429;SDS011;29028;43.234;27.896;2022-08-21T05:17:12;10.70;;;9.60;;
43429;SDS011;29028;43.234;27.896;2022-08-21T05:17:33;10.75;;;9.35;;
43429;SDS011;29028;43.234;27.896;2022-08-21T05:17:55;11.80;;;9.80;;
43429;SDS011;29028;43.234;27.896;2022-08-21T05:18:16;10.57;;;9.38;;
43429;SDS011;29028;43.234;27.896;2022-08-21T05:18:37;10.25;;;9.18;;
43429;SDS011;29028;43.234;27.896;2022-08-21T05:18:58;12.15;;;9.40;;
43429;SDS011;29028;43.234;27.896;2022-08-21T05:19:20;11.07;;;9.20;;
43429;SDS011;29028;43.234;27.896;2022-08-21T05:19:41;9.70;;;8.70;;
43429;SDS011;29028;43.234;27.896;2022-08-21T05:20:02;9.70;;;8.70;;
43429;SDS011;29028;43.234;27.896;2022-08-21T05:20:23;11.60;;;9.00;;
43429;SDS011;29028;43.234;27.896;2022-08-21T05:20:45;10.65;;;9.00;;
43429;SDS011;29028;43.234;27.896;2022-08-21T05:21:08;9.98;;;8.85;;
43429;SDS011;29028;43.234;27.896;2022-08-21T05:21:29;10.05;;;9.05;;
43429;SDS011;29028;43.234;27.896;2022-08-21T05:21:50;9.75;;;8.77;;
43429;SDS011;29028;43.234;27.896;2022-08-21T05:22:18;10.00;;;9.00;;
43429;SDS011;29028;43.234;27.896;2022-08-21T05:22:40;9.40;;;8.50;;
43429;SDS011;29028;43.234;27.896;2022-08-21T05:23:05;9.65;;;8.73;;
43429;SDS011;29028;43.234;27.896;2022-08-21T05:23:28;10.15;;;9.07;;
43429;SDS011;29028;43.234;27.896;2022-08-21T05:23:49;9.38;;;8.48;;
43429;SDS011;29028;43.234;27.896;2022-08-21T05:24:11;9.43;;;8.40;;
43429;SDS011;29028;43.234;27.896;2022-08-21T05:24:32;9.45;;;8.55;;
43429;SDS011;29028;43.234;27.896;2022-08-21T05:24:53;9.45;;;8.50;;
43429;SDS011;29028;43.234;27.896;2022-08-21T05:25:14;9.68;;;8.70;;
43429;SDS011;29028;43.234;27.896;2022-08-21T05:25:36;9.93;;;8.52;;
43429;SDS011;29028;43.234;27.896;2022-08-21T05:25:58;10.45;;;8.85;;
43429;SDS011;29028;43.234;27.896;2022-08-21T05:26:19;9.65;;;8.65;;
43429;SDS011;29028;43.234;27.896;2022-08-21T05:26:40;11.13;;;8.70;;
43429;SDS011;29028;43.234;27.896;2022-08-21T05:27:02;9.20;;;8.30;;
43429;SDS011;29028;43.234;27.896;2022-08-21T05:27:23;9.80;;;8.80;;
43429;SDS011;29028;43.234;27.896;2022-08-21T05:27:44;9.45;;;8.50;;
43429;SDS011;29028;43.234;27.896;2022-08-21T05:28:05;10.38;;;8.43;;
43429;SDS011;29028;43.234;27.896;2022-08-21T05:28:27;10.05;;;8.82;;
43429;SDS011;29028;43.234;27.896;2022-08-21T05:28:48;10.37;;;8.70;;
43429;SDS011;29028;43.234;27.896;2022-08-21T05:29:09;9.40;;;8.23;;
43429;SDS011;29028;43.234;27.896;2022-08-21T05:29:31;10.10;;;8.30;;
43429;SDS011;29028;43.234;27.896;2022-08-21T05:30:08;10.80;;;8.52;;
43429;SDS011;29028;43.234;27.896;2022-08-21T05:30:30;9.70;;;8.57;;
43429;SDS011;29028;43.234;27.896;2022-08-21T05:30:51;8.80;;;7.90;;
43429;SDS011;29028;43.234;27.896;2022-08-21T05:31:12;9.07;;;8.18;;
43429;SDS011;29028;43.234;27.896;2022-08-21T05:31:34;9.70;;;8.27;;
43429;SDS011;29028;43.234;27.896;2022-08-21T05:31:54;9.43;;;8.50;;
43429;SDS011;29028;43.234;27.896;2022-08-21T05:32:17;9.00;;;8.10;;
43429;SDS011;29028;43.234;27.896;2022-08-21T05:32:38;8.95;;;8.05;;
43429;SDS011;29028;43.234;27.896;2022-08-21T05:33:01;9.50;;;8.50;;
43429;SDS011;29028;43.234;27.896;2022-08-21T05:33:23;9.95;;;8.05;;
43429;SDS011;29028;43.234;27.896;2022-08-21T05:33:44;9.70;;;8.00;;
43429;SDS011;29028;43.234;27.896;2022-08-21T05:34:05;10.20;;;9.05;;
43429;SDS011;29028;43.234;27.896;2022-08-21T05:34:26;12.68;;;11.05;;
43429;SDS011;29028;43.234;27.896;2022-08-21T05:34:48;13.30;;;10.98;;
43429;SDS011;29028;43.234;27.896;2022-08-21T05:35:09;14.02;;;12.43;;
43429;SDS011;29028;43.234;27.896;2022-08-21T05:35:31;17.27;;;15.45;;
43429;SDS011;29028;43.234;27.896;2022-08-21T05:35:53;18.42;;;16.50;;
43429;SDS011;29028;43.234;27.896;2022-08-21T05:36:16;19.88;;;17.67;;
43429;SDS011;29028;43.234;27.896;2022-08-21T05:36:38;20.23;;;18.05;;
43429;SDS011;29028;43.234;27.896;2022-08-21T05:36:58;20.08;;;17.98;;
43429;SDS011;29028;43.234;27.896;2022-08-21T05:37:19;19.90;;;17.80;;
43429;SDS011;29028;43.234;27.896;2022-08-21T05:37:41;20.10;;;18.00;;
43429;SDS011;29028;43.234;27.896;2022-08-21T05:38:03;22.23;;;19.95;;
43429;SDS011;29028;43.234;27.896;2022-08-21T05:38:24;21.63;;;19.25;;
43429;SDS011;29028;43.234;27.896;2022-08-21T05:38:47;19.83;;;17.73;;
43429;SDS011;29028;43.234;27.896;2022-08-21T05:39:09;18.50;;;16.60;;
43429;SDS011;29028;43.234;27.896;2022-08-21T05:39:30;19.23;;;16.67;;
43429;SDS011;29028;43.234;27.896;2022-08-21T05:39:51;17.77;;;15.77;;
43429;SDS011;29028;43.234;27.896;2022-08-21T05:40:12;16.48;;;14.63;;
43429;SDS011;29028;43.234;27.896;2022-08-21T05:40:34;16.30;;;14.40;;
43429;SDS011;29028;43.234;27.896;2022-08-21T05:40:55;17.23;;;14.38;;
43429;SDS011;29028;43.234;27.896;2022-08-21T05:41:16;14.65;;;13.15;;
43429;SDS011;29028;43.234;27.896;2022-08-21T05:41:37;14.52;;;13.13;;
43429;SDS011;29028;43.234;27.896;2022-08-21T05:41:59;13.95;;;12.50;;
43429;SDS011;29028;43.234;27.896;2022-08-21T05:42:20;13.80;;;12.10;;
43429;SDS011;29028;43.234;27.896;2022-08-21T05:42:41;13.93;;;12.45;;
43429;SDS011;29028;43.234;27.896;2022-08-21T05:43:03;16.27;;;13.13;;
43429;SDS011;29028;43.234;27.896;2022-08-21T05:43:23;13.82;;;12.38;;
43429;SDS011;29028;43.234;27.896;2022-08-21T05:43:44;13.35;;;11.98;;
43429;SDS011;29028;43.234;27.896;2022-08-21T05:44:05;14.47;;;13.07;;
43429;SDS011;29028;43.234;27.896;2022-08-21T05:44:26;14.63;;;13.13;;
43429;SDS011;29028;43.234;27.896;2022-08-21T05:44:48;17.85;;;13.18;;
43429;SDS011;29028;43.234;27.896;2022-08-21T05:45:09;16.20;;;13.05;;
43429;SDS011;29028;43.234;27.896;2022-08-21T05:45:30;14.27;;;12.70;;
43429;SDS011;29028;43.234;27.896;2022-08-21T05:45:53;14.13;;;12.65;;
43429;SDS011;29028;43.234;27.896;2022-08-21T05:46:15;13.43;;;12.02;;
43429;SDS011;29028;43.234;27.896;2022-08-21T05:46:36;13.65;;;11.85;;
43429;SDS011;29028;43.234;27.896;2022-08-21T05:47:01;13.45;;;11.73;;
43429;SDS011;29028;43.234;27.896;2022-08-21T05:47:25;13.65;;;12.02;;
43429;SDS011;29028;43.234;27.896;2022-08-21T05:47:47;13.52;;;12.13;;
43429;SDS011;29028;43.234;27.896;2022-08-21T05:48:08;13.10;;;11.70;;
43429;SDS011;29028;43.234;27.896;2022-08-21T05:48:30;13.70;;;12.10;;
43429;SDS011;29028;43.234;27.896;2022-08-21T05:48:51;13.10;;;11.73;;
43429;SDS011;29028;43.234;27.896;2022-08-21T05:49:13;13.30;;;11.77;;
43429;SDS011;29028;43.234;27.896;2022-08-21T05:49:34;12.57;;;11.07;;
43429;SDS011;29028;43.234;27.896;2022-08-21T05:49:55;12.80;;;11.23;;
43429;SDS011;29028;43.234;27.896;2022-08-21T05:50:16;12.63;;;11.13;;
43429;SDS011;29028;43.234;27.896;2022-08-21T05:50:38;12.88;;;11.55;;
43429;SDS011;29028;43.234;27.896;2022-08-21T05:51:04;12.35;;;11.15;;
43429;SDS011;29028;43.234;27.896;2022-08-21T05:51:25;12.13;;;10.85;;
43429;SDS011;29028;43.234;27.896;2022-08-21T05:51:46;12.25;;;10.60;;
43429;SDS011;29028;43.234;27.896;2022-08-21T05:52:08;11.77;;;10.57;;
43429;SDS011;29028;43.234;27.896;2022-08-21T05:52:29;11.93;;;10.80;;
43429;SDS011;29028;43.234;27.896;2022-08-21T05:52:50;12.25;;;11.02;;
43429;SDS011;29028;43.234;27.896;2022-08-21T05:53:11;12.90;;;11.00;;
43429;SDS011;29028;43.234;27.896;2022-08-21T05:53:34;12.95;;;10.88;;
43429;SDS011;29028;43.234;27.896;2022-08-21T05:53:55;12.40;;;11.10;;
43429;SDS011;29028;43.234;27.896;2022-08-21T05:54:16;12.35;;;11.15;;
43429;SDS011;29028;43.234;27.896;2022-08-21T05:54:37;12.70;;;11.40;;
43429;SDS011;29028;43.234;27.896;2022-08-21T05:54:58;13.02;;;11.73;;
43429;SDS011;29028;43.234;27.896;2022-08-21T05:55:19;13.07;;;11.45;;
43429;SDS011;29028;43.234;27.896;2022-08-21T05:55:40;13.05;;;11.38;;
43429;SDS011;29028;43.234;27.896;2022-08-21T05:56:02;13.13;;;11.68;;
43429;SDS011;29028;43.234;27.896;2022-08-21T05:56:25;13.85;;;11.70;;
43429;SDS011;29028;43.234;27.896;2022-08-21T05:56:46;12.25;;;11.00;;
43429;SDS011;29028;43.234;27.896;2022-08-21T05:57:06;11.68;;;10.02;;
43429;SDS011;29028;43.234;27.896;2022-08-21T05:57:28;10.88;;;9.70;;
43429;SDS011;29028;43.234;27.896;2022-08-21T05:57:49;11.07;;;9.70;;
43429;SDS011;29028;43.234;27.896;2022-08-21T05:58:10;10.57;;;9.47;;
43429;SDS011;29028;43.234;27.896;2022-08-21T05:58:32;11.57;;;10.38;;
43429;SDS011;29028;43.234;27.896;2022-08-21T05:58:53;11.30;;;10.15;;
43429;SDS011;29028;43.234;27.896;2022-08-21T05:59:15;11.68;;;10.43;;
43429;SDS011;29028;43.234;27.896;2022-08-21T05:59:36;13.13;;;10.63;;
43429;SDS011;29028;43.234;27.896;2022-08-21T05:59:57;12.90;;;10.75;;
43429;SDS011;29028;43.234;27.896;2022-08-21T06:00:18;13.40;;;12.00;;
43429;SDS011;29028;43.234;27.896;2022-08-21T06:00:40;12.90;;;11.60;;
43429;SDS011;29028;43.234;27.896;2022-08-21T06:01:02;12.77;;;11.40;;
43429;SDS011;29028;43.234;27.896;2022-08-21T06:01:24;14.30;;;12.63;;
43429;SDS011;29028;43.234;27.896;2022-08-21T06:01:45;16.60;;;14.90;;
43429;SDS011;29028;43.234;27.896;2022-08-21T06:02:06;17.70;;;15.88;;
43429;SDS011;29028;43.234;27.896;2022-08-21T06:02:29;18.20;;;16.23;;
43429;SDS011;29028;43.234;27.896;2022-08-21T06:02:51;17.95;;;15.77;;
43429;SDS011;29028;43.234;27.896;2022-08-21T06:03:12;16.27;;;14.68;;
43429;SDS011;29028;43.234;27.896;2022-08-21T06:03:35;16.83;;;14.70;;
43429;SDS011;29028;43.234;27.896;2022-08-21T06:03:57;16.75;;;14.43;;
43429;SDS011;29028;43.234;27.896;2022-08-21T06:04:19;15.10;;;13.13;;
43429;SDS011;29028;43.234;27.896;2022-08-21T06:04:42;13.32;;;11.70;;
43429;SDS011;29028;43.234;27.896;2022-08-21T06:05:04;14.80;;;12.57;;
43429;SDS011;29028;43.234;27.896;2022-08-21T06:05:25;14.88;;;12.10;;
43429;SDS011;29028;43.234;27.896;2022-08-21T06:05:47;14.05;;;11.38;;
43429;SDS011;29028;43.234;27.896;2022-08-21T06:06:08;12.05;;;10.77;;
43429;SDS011;29028;43.234;27.896;2022-08-21T06:06:29;11.68;;;10.48;;
43429;SDS011;29028;43.234;27.896;2022-08-21T06:06:51;11.80;;;10.63;;
43429;SDS011;29028;43.234;27.896;2022-08-21T06:07:13;12.00;;;10.70;;
43429;SDS011;29028;43.234;27.896;2022-08-21T06:07:34;11.60;;;10.50;;
43429;SDS011;29028;43.234;27.896;2022-08-21T06:07:55;12.00;;;10.70;;
43429;SDS011;29028;43.234;27.896;2022-08-21T06:08:16;12.05;;;10.40;;
43429;SDS011;29028;43.234;27.896;2022-08-21T06:08:38;11.35;;;10.00;;